sensor_id;sensor_type;location;lat;lon;timestamp;P1;durP1;ratioP1;P2;durP2;ratioP2
9422;SDS011;65863;49.506;10.400;2024-01-15T00:01:44;39.77;;;17.87;;
9422;SDS011;65863;49.506;10.400;2024-01-15T00:04:28;35.60;;;16.33;;
9422;SDS011;65863;49.506;10.400;2024-01-15T00:07:12;40.73;;;17.80;;
9422;SDS011;65863;49.506;10.400;2024-01-15T00:09:56;31.10;;;17.23;;
9422;SDS011;65863;49.506;10.400;2024-01-15T00:12:40;34.50;;;16.03;;
9422;SDS011;65863;49.506;10.400;2024-01-15T00:15:24;32.67;;;15.17;;
9422;SDS011;65863;49.506;10.400;2024-01-15T00:18:09;38.23;;;17.23;;
9422;SDS011;65863;49.506;10.400;2024-01-15T00:20:53;29.93;;;14.93;;
9422;SDS011;65863;49.506;10.400;2024-01-15T00:23:39;38.43;;;17.03;;
9422;SDS011;65863;49.506;10.400;2024-01-15T00:26:26;31.23;;;14.97;;
9422;SDS011;65863;49.506;10.400;2024-01-15T00:29:11;36.23;;;17.63;;
9422;SDS011;65863;49.506;10.400;2024-01-15T00:31:55;34.63;;;17.33;;
9422;SDS011;65863;49.506;10.400;2024-01-15T00:34:39;32.83;;;14.50;;
9422;SDS011;65863;49.506;10.400;2024-01-15T00:37:23;32.50;;;15.90;;
9422;SDS011;65863;49.506;10.400;2024-01-15T00:40:08;40.33;;;17.93;;
9422;SDS011;65863;49.506;10.400;2024-01-15T00:42:52;34.40;;;16.13;;
9422;SDS011;65863;49.506;10.400;2024-01-15T00:45:37;34.77;;;17.10;;
9422;SDS011;65863;49.506;10.400;2024-01-15T00:48:21;35.33;;;16.63;;
9422;SDS011;65863;49.506;10.400;2024-01-15T00:51:05;39.80;;;17.33;;
9422;SDS011;65863;49.506;10.400;2024-01-15T00:53:49;35.70;;;16.87;;
9422;SDS011;65863;49.506;10.400;2024-01-15T00:56:36;44.00;;;19.40;;
9422;SDS011;65863;49.506;10.400;2024-01-15T00:59:26;38.17;;;18.30;;
9422;SDS011;65863;49.506;10.400;2024-01-15T01:02:10;44.70;;;19.40;;
9422;SDS011;65863;49.506;10.400;2024-01-15T01:04:54;34.23;;;16.83;;
9422;SDS011;65863;49.506;10.400;2024-01-15T01:07:38;43.23;;;20.07;;
9422;SDS011;65863;49.506;10.400;2024-01-15T01:10:22;41.63;;;18.77;;
9422;SDS011;65863;49.506;10.400;2024-01-15T01:13:06;32.50;;;16.73;;
9422;SDS011;65863;49.506;10.400;2024-01-15T01:15:50;31.63;;;14.43;;
9422;SDS011;65863;49.506;10.400;2024-01-15T01:18:35;38.07;;;18.33;;
9422;SDS011;65863;49.506;10.400;2024-01-15T01:21:18;38.93;;;19.57;;
9422;SDS011;65863;49.506;10.400;2024-01-15T01:24:03;38.17;;;18.57;;
9422;SDS011;65863;49.506;10.400;2024-01-15T01:26:47;40.60;;;18.53;;
9422;SDS011;65863;49.506;10.400;2024-01-15T01:29:31;37.87;;;18.23;;
9422;SDS011;65863;49.506;10.400;2024-01-15T01:32:15;36.03;;;16.73;;
9422;SDS011;65863;49.506;10.400;2024-01-15T01:34:59;33.17;;;15.60;;
9422;SDS011;65863;49.506;10.400;2024-01-15T01:37:43;37.50;;;19.23;;
9422;SDS011;65863;49.506;10.400;2024-01-15T01:40:27;36.17;;;17.87;;
9422;SDS011;65863;49.506;10.400;2024-01-15T01:43:11;40.47;;;18.30;;
9422;SDS011;65863;49.506;10.400;2024-01-15T01:45:55;41.63;;;18.53;;
9422;SDS011;65863;49.506;10.400;2024-01-15T01:48:42;39.83;;;17.20;;
9422;SDS011;65863;49.506;10.400;2024-01-15T01:51:27;34.60;;;17.27;;
9422;SDS011;65863;49.506;10.400;2024-01-15T01:54:11;37.13;;;17.00;;
9422;SDS011;65863;49.506;10.400;2024-01-15T01:56:57;41.10;;;18.97;;
9422;SDS011;65863;49.506;10.400;2024-01-15T01:59:42;33.93;;;18.30;;
9422;SDS011;65863;49.506;10.400;2024-01-15T02:02:26;38.17;;;17.87;;
9422;SDS011;65863;49.506;10.400;2024-01-15T02:05:10;31.97;;;17.13;;
9422;SDS011;65863;49.506;10.400;2024-01-15T02:07:57;38.57;;;17.90;;
9422;SDS011;65863;49.506;10.400;2024-01-15T02:10:41;38.93;;;18.80;;
9422;SDS011;65863;49.506;10.400;2024-01-15T02:13:25;40.57;;;19.50;;
9422;SDS011;65863;49.506;10.400;2024-01-15T02:16:09;42.10;;;18.30;;
9422;SDS011;65863;49.506;10.400;2024-01-15T02:18:53;33.87;;;16.30;;
9422;SDS011;65863;49.506;10.400;2024-01-15T02:21:37;31.20;;;16.90;;
9422;SDS011;65863;49.506;10.400;2024-01-15T02:24:21;31.47;;;17.73;;
9422;SDS011;65863;49.506;10.400;2024-01-15T02:27:05;35.27;;;16.97;;
9422;SDS011;65863;49.506;10.400;2024-01-15T02:29:49;33.87;;;17.07;;
9422;SDS011;65863;49.506;10.400;2024-01-15T02:32:34;37.17;;;17.10;;
9422;SDS011;65863;49.506;10.400;2024-01-15T02:35:18;30.33;;;15.33;;
9422;SDS011;65863;49.506;10.400;2024-01-15T02:38:03;32.10;;;15.60;;
9422;SDS011;65863;49.506;10.400;2024-01-15T02:40:49;34.37;;;16.63;;
9422;SDS011;65863;49.506;10.400;2024-01-15T02:43:33;30.13;;;16.23;;
9422;SDS011;65863;49.506;10.400;2024-01-15T02:46:17;31.73;;;17.00;;
9422;SDS011;65863;49.506;10.400;2024-01-15T02:49:39;32.63;;;17.10;;
9422;SDS011;65863;49.506;10.400;2024-01-15T02:52:29;32.10;;;16.03;;
9422;SDS011;65863;49.506;10.400;2024-01-15T02:55:13;36.43;;;17.03;;
9422;SDS011;65863;49.506;10.400;2024-01-15T02:57:57;34.33;;;17.83;;
9422;SDS011;65863;49.506;10.400;2024-01-15T03:00:41;34.23;;;17.50;;
9422;SDS011;65863;49.506;10.400;2024-01-15T03:03:26;37.40;;;18.43;;
9422;SDS011;65863;49.506;10.400;2024-01-15T03:06:10;34.17;;;16.93;;
9422;SDS011;65863;49.506;10.400;2024-01-15T03:08:53;36.13;;;17.10;;
9422;SDS011;65863;49.506;10.400;2024-01-15T03:11:38;36.00;;;16.63;;
9422;SDS011;65863;49.506;10.400;2024-01-15T03:14:22;31.93;;;15.97;;
9422;SDS011;65863;49.506;10.400;2024-01-15T03:17:08;38.60;;;16.20;;
9422;SDS011;65863;49.506;10.400;2024-01-15T03:19:53;31.83;;;16.43;;
9422;SDS011;65863;49.506;10.400;2024-01-15T03:22:37;38.13;;;16.13;;
9422;SDS011;65863;49.506;10.400;2024-01-15T03:25:21;31.53;;;14.87;;
9422;SDS011;65863;49.506;10.400;2024-01-15T03:28:05;30.57;;;14.53;;
9422;SDS011;65863;49.506;10.400;2024-01-15T03:30:49;32.60;;;15.83;;
9422;SDS011;65863;49.506;10.400;2024-01-15T03:33:33;31.13;;;15.20;;
9422;SDS011;65863;49.506;10.400;2024-01-15T03:36:17;32.10;;;15.27;;
9422;SDS011;65863;49.506;10.400;2024-01-15T03:39:01;31.53;;;15.93;;
9422;SDS011;65863;49.506;10.400;2024-01-15T03:41:45;29.70;;;15.03;;
9422;SDS011;65863;49.506;10.400;2024-01-15T03:44:29;32.53;;;16.17;;
9422;SDS011;65863;49.506;10.400;2024-01-15T03:47:13;33.43;;;16.10;;
9422;SDS011;65863;49.506;10.400;2024-01-15T03:49:58;31.90;;;15.63;;
9422;SDS011;65863;49.506;10.400;2024-01-15T03:52:42;36.93;;;15.93;;
9422;SDS011;65863;49.506;10.400;2024-01-15T03:55:26;30.03;;;14.63;;
9422;SDS011;65863;49.506;10.400;2024-01-15T03:58:10;33.43;;;15.93;;
9422;SDS011;65863;49.506;10.400;2024-01-15T04:00:54;31.93;;;15.37;;
9422;SDS011;65863;49.506;10.400;2024-01-15T04:03:38;35.60;;;14.23;;
9422;SDS011;65863;49.506;10.400;2024-01-15T04:06:22;28.03;;;14.13;;
9422;SDS011;65863;49.506;10.400;2024-01-15T04:09:06;33.07;;;16.13;;
9422;SDS011;65863;49.506;10.400;2024-01-15T04:11:50;29.93;;;16.33;;
9422;SDS011;65863;49.506;10.400;2024-01-15T04:14:34;27.83;;;15.17;;
9422;SDS011;65863;49.506;10.400;2024-01-15T04:17:18;28.67;;;14.57;;
9422;SDS011;65863;49.506;10.400;2024-01-15T04:20:02;28.10;;;13.73;;
9422;SDS011;65863;49.506;10.400;2024-01-15T04:22:47;32.53;;;14.27;;
9422;SDS011;65863;49.506;10.400;2024-01-15T04:25:30;32.57;;;15.00;;
9422;SDS011;65863;49.506;10.400;2024-01-15T04:28:15;26.13;;;13.43;;
9422;SDS011;65863;49.506;10.400;2024-01-15T04:30:58;32.57;;;14.87;;
9422;SDS011;65863;49.506;10.400;2024-01-15T04:33:42;27.60;;;14.23;;
9422;SDS011;65863;49.506;10.400;2024-01-15T04:36:26;28.13;;;14.00;;
9422;SDS011;65863;49.506;10.400;2024-01-15T04:39:11;28.93;;;13.67;;
9422;SDS011;65863;49.506;10.400;2024-01-15T04:42:33;28.67;;;13.70;;
9422;SDS011;65863;49.506;10.400;2024-01-15T04:45:22;26.13;;;12.47;;
9422;SDS011;65863;49.506;10.400;2024-01-15T04:48:11;25.77;;;12.40;;
9422;SDS011;65863;49.506;10.400;2024-01-15T04:50:55;25.87;;;12.47;;
9422;SDS011;65863;49.506;10.400;2024-01-15T04:53:39;26.30;;;13.20;;
9422;SDS011;65863;49.506;10.400;2024-01-15T04:56:33;23.47;;;12.33;;
9422;SDS011;65863;49.506;10.400;2024-01-15T04:59:16;24.83;;;12.23;;
9422;SDS011;65863;49.506;10.400;2024-01-15T05:02:01;24.07;;;10.40;;
9422;SDS011;65863;49.506;10.400;2024-01-15T05:04:45;23.10;;;11.87;;
9422;SDS011;65863;49.506;10.400;2024-01-15T05:07:28;23.20;;;11.13;;
9422;SDS011;65863;49.506;10.400;2024-01-15T05:10:12;19.67;;;11.03;;
9422;SDS011;65863;49.506;10.400;2024-01-15T05:12:56;24.00;;;12.17;;
9422;SDS011;65863;49.506;10.400;2024-01-15T05:15:40;21.63;;;11.30;;
9422;SDS011;65863;49.506;10.400;2024-01-15T05:18:24;24.00;;;12.40;;
9422;SDS011;65863;49.506;10.400;2024-01-15T05:21:08;24.73;;;13.43;;
9422;SDS011;65863;49.506;10.400;2024-01-15T05:23:52;24.73;;;12.70;;
9422;SDS011;65863;49.506;10.400;2024-01-15T05:26:36;19.70;;;10.13;;
9422;SDS011;65863;49.506;10.400;2024-01-15T05:29:20;23.87;;;12.50;;
9422;SDS011;65863;49.506;10.400;2024-01-15T05:32:04;26.00;;;12.07;;
9422;SDS011;65863;49.506;10.400;2024-01-15T05:34:48;24.77;;;12.27;;
9422;SDS011;65863;49.506;10.400;2024-01-15T05:37:35;21.87;;;11.63;;
9422;SDS011;65863;49.506;10.400;2024-01-15T05:40:19;24.10;;;11.70;;
9422;SDS011;65863;49.506;10.400;2024-01-15T05:43:03;23.10;;;12.10;;
9422;SDS011;65863;49.506;10.400;2024-01-15T05:45:47;22.23;;;11.30;;
9422;SDS011;65863;49.506;10.400;2024-01-15T05:48:31;24.77;;;12.43;;
9422;SDS011;65863;49.506;10.400;2024-01-15T05:51:15;17.80;;;10.80;;
9422;SDS011;65863;49.506;10.400;2024-01-15T05:53:59;23.10;;;12.03;;
9422;SDS011;65863;49.506;10.400;2024-01-15T05:56:43;22.27;;;11.63;;
9422;SDS011;65863;49.506;10.400;2024-01-15T05:59:27;24.37;;;12.33;;
9422;SDS011;65863;49.506;10.400;2024-01-15T06:02:15;25.03;;;13.23;;
9422;SDS011;65863;49.506;10.400;2024-01-15T06:04:59;23.00;;;11.67;;
9422;SDS011;65863;49.506;10.400;2024-01-15T06:07:43;24.23;;;13.17;;
9422;SDS011;65863;49.506;10.400;2024-01-15T06:10:27;25.53;;;12.13;;
9422;SDS011;65863;49.506;10.400;2024-01-15T06:13:11;25.47;;;12.47;;
9422;SDS011;65863;49.506;10.400;2024-01-15T06:15:57;25.53;;;11.77;;
9422;SDS011;65863;49.506;10.400;2024-01-15T06:18:41;29.70;;;13.70;;
9422;SDS011;65863;49.506;10.400;2024-01-15T06:21:25;25.17;;;12.47;;
9422;SDS011;65863;49.506;10.400;2024-01-15T06:24:09;22.13;;;12.40;;
9422;SDS011;65863;49.506;10.400;2024-01-15T06:26:53;22.47;;;12.20;;
9422;SDS011;65863;49.506;10.400;2024-01-15T06:29:38;23.20;;;13.07;;
9422;SDS011;65863;49.506;10.400;2024-01-15T06:32:23;20.53;;;11.83;;
9422;SDS011;65863;49.506;10.400;2024-01-15T06:35:07;26.37;;;13.13;;
9422;SDS011;65863;49.506;10.400;2024-01-15T06:37:51;24.83;;;11.87;;
9422;SDS011;65863;49.506;10.400;2024-01-15T06:40:35;22.73;;;12.40;;
9422;SDS011;65863;49.506;10.400;2024-01-15T06:43:19;22.00;;;11.60;;
9422;SDS011;65863;49.506;10.400;2024-01-15T06:46:03;19.87;;;11.27;;
9422;SDS011;65863;49.506;10.400;2024-01-15T06:48:47;23.83;;;12.47;;
9422;SDS011;65863;49.506;10.400;2024-01-15T06:51:32;21.47;;;11.67;;
9422;SDS011;65863;49.506;10.400;2024-01-15T06:54:16;21.80;;;11.23;;
9422;SDS011;65863;49.506;10.400;2024-01-15T06:57:00;25.63;;;13.37;;
9422;SDS011;65863;49.506;10.400;2024-01-15T06:59:44;26.40;;;13.57;;
9422;SDS011;65863;49.506;10.400;2024-01-15T07:02:28;27.43;;;13.30;;
9422;SDS011;65863;49.506;10.400;2024-01-15T07:05:12;28.83;;;12.77;;
9422;SDS011;65863;49.506;10.400;2024-01-15T07:07:56;19.63;;;11.77;;
9422;SDS011;65863;49.506;10.400;2024-01-15T07:10:39;23.53;;;12.13;;
9422;SDS011;65863;49.506;10.400;2024-01-15T07:13:23;16.83;;;9.50;;
9422;SDS011;65863;49.506;10.400;2024-01-15T07:16:07;19.93;;;10.83;;
9422;SDS011;65863;49.506;10.400;2024-01-15T07:18:51;27.07;;;12.70;;
9422;SDS011;65863;49.506;10.400;2024-01-15T07:21:35;26.13;;;14.10;;
9422;SDS011;65863;49.506;10.400;2024-01-15T07:24:19;24.20;;;12.27;;
9422;SDS011;65863;49.506;10.400;2024-01-15T07:27:03;22.07;;;12.23;;
9422;SDS011;65863;49.506;10.400;2024-01-15T07:29:48;24.93;;;12.43;;
9422;SDS011;65863;49.506;10.400;2024-01-15T07:32:32;19.90;;;11.33;;
9422;SDS011;65863;49.506;10.400;2024-01-15T07:35:16;21.97;;;12.00;;
9422;SDS011;65863;49.506;10.400;2024-01-15T07:38:00;27.07;;;11.27;;
9422;SDS011;65863;49.506;10.400;2024-01-15T07:40:44;24.63;;;12.67;;
9422;SDS011;65863;49.506;10.400;2024-01-15T07:43:32;19.37;;;11.87;;
9422;SDS011;65863;49.506;10.400;2024-01-15T07:46:17;20.00;;;11.23;;
9422;SDS011;65863;49.506;10.400;2024-01-15T07:49:01;19.33;;;10.70;;
9422;SDS011;65863;49.506;10.400;2024-01-15T07:51:45;21.87;;;11.17;;
9422;SDS011;65863;49.506;10.400;2024-01-15T07:54:29;23.57;;;12.57;;
9422;SDS011;65863;49.506;10.400;2024-01-15T07:57:13;22.20;;;11.17;;
9422;SDS011;65863;49.506;10.400;2024-01-15T07:59:57;21.80;;;12.37;;
9422;SDS011;65863;49.506;10.400;2024-01-15T08:02:41;17.80;;;10.70;;
9422;SDS011;65863;49.506;10.400;2024-01-15T08:05:25;20.57;;;11.00;;
9422;SDS011;65863;49.506;10.400;2024-01-15T08:08:09;21.10;;;12.00;;
9422;SDS011;65863;49.506;10.400;2024-01-15T08:10:53;21.47;;;11.70;;
9422;SDS011;65863;49.506;10.400;2024-01-15T08:13:38;23.57;;;12.53;;
9422;SDS011;65863;49.506;10.400;2024-01-15T08:16:22;19.53;;;10.40;;
9422;SDS011;65863;49.506;10.400;2024-01-15T08:19:08;19.47;;;11.17;;
9422;SDS011;65863;49.506;10.400;2024-01-15T08:21:52;24.00;;;15.88;;
9422;SDS011;65863;49.506;10.400;2024-01-15T08:24:37;20.63;;;12.27;;
9422;SDS011;65863;49.506;10.400;2024-01-15T08:27:21;25.03;;;13.03;;
9422;SDS011;65863;49.506;10.400;2024-01-15T08:30:05;17.20;;;10.83;;
9422;SDS011;65863;49.506;10.400;2024-01-15T08:32:49;18.37;;;10.00;;
9422;SDS011;65863;49.506;10.400;2024-01-15T08:35:34;18.33;;;11.33;;
9422;SDS011;65863;49.506;10.400;2024-01-15T08:38:18;22.07;;;11.70;;
9422;SDS011;65863;49.506;10.400;2024-01-15T08:41:03;18.93;;;10.73;;
9422;SDS011;65863;49.506;10.400;2024-01-15T08:43:47;21.90;;;11.57;;
9422;SDS011;65863;49.506;10.400;2024-01-15T08:46:31;21.13;;;12.23;;
9422;SDS011;65863;49.506;10.400;2024-01-15T08:49:15;19.73;;;10.57;;
9422;SDS011;65863;49.506;10.400;2024-01-15T08:51:59;24.83;;;11.60;;
9422;SDS011;65863;49.506;10.400;2024-01-15T08:55:21;19.73;;;11.00;;
9422;SDS011;65863;49.506;10.400;2024-01-15T08:58:06;21.65;;;11.85;;
9422;SDS011;65863;49.506;10.400;2024-01-15T09:00:50;20.67;;;11.67;;
9422;SDS011;65863;49.506;10.400;2024-01-15T09:03:34;21.93;;;11.30;;
9422;SDS011;65863;49.506;10.400;2024-01-15T09:06:18;16.87;;;9.93;;
9422;SDS011;65863;49.506;10.400;2024-01-15T09:09:02;17.60;;;11.33;;
9422;SDS011;65863;49.506;10.400;2024-01-15T09:11:46;19.17;;;10.47;;
9422;SDS011;65863;49.506;10.400;2024-01-15T09:14:30;19.27;;;10.97;;
9422;SDS011;65863;49.506;10.400;2024-01-15T09:17:14;16.57;;;10.57;;
9422;SDS011;65863;49.506;10.400;2024-01-15T09:19:59;20.80;;;11.13;;
9422;SDS011;65863;49.506;10.400;2024-01-15T09:22:44;17.50;;;11.33;;
9422;SDS011;65863;49.506;10.400;2024-01-15T09:25:29;19.17;;;11.23;;
9422;SDS011;65863;49.506;10.400;2024-01-15T09:28:13;20.57;;;12.03;;
9422;SDS011;65863;49.506;10.400;2024-01-15T09:30:57;21.40;;;11.27;;
9422;SDS011;65863;49.506;10.400;2024-01-15T09:33:41;19.13;;;10.77;;
9422;SDS011;65863;49.506;10.400;2024-01-15T09:36:25;17.17;;;10.33;;
9422;SDS011;65863;49.506;10.400;2024-01-15T09:39:10;19.23;;;11.53;;
9422;SDS011;65863;49.506;10.400;2024-01-15T09:41:54;18.10;;;11.03;;
9422;SDS011;65863;49.506;10.400;2024-01-15T09:44:39;16.53;;;10.07;;
9422;SDS011;65863;49.506;10.400;2024-01-15T09:47:23;15.23;;;11.23;;
9422;SDS011;65863;49.506;10.400;2024-01-15T09:50:08;16.80;;;10.70;;
9422;SDS011;65863;49.506;10.400;2024-01-15T09:52:53;15.63;;;10.00;;
9422;SDS011;65863;49.506;10.400;2024-01-15T09:55:38;25.07;;;14.53;;
9422;SDS011;65863;49.506;10.400;2024-01-15T09:58:22;22.13;;;13.17;;
9422;SDS011;65863;49.506;10.400;2024-01-15T10:01:06;19.93;;;11.87;;
9422;SDS011;65863;49.506;10.400;2024-01-15T10:03:51;23.60;;;12.33;;
9422;SDS011;65863;49.506;10.400;2024-01-15T10:06:36;24.40;;;11.70;;
9422;SDS011;65863;49.506;10.400;2024-01-15T10:09:23;20.90;;;12.20;;
9422;SDS011;65863;49.506;10.400;2024-01-15T10:12:07;21.80;;;12.33;;
9422;SDS011;65863;49.506;10.400;2024-01-15T10:14:53;17.40;;;11.77;;
9422;SDS011;65863;49.506;10.400;2024-01-15T10:17:37;18.20;;;10.60;;
9422;SDS011;65863;49.506;10.400;2024-01-15T10:20:22;18.73;;;12.27;;
9422;SDS011;65863;49.506;10.400;2024-01-15T10:23:06;20.27;;;11.70;;
9422;SDS011;65863;49.506;10.400;2024-01-15T10:25:50;19.00;;;11.13;;
9422;SDS011;65863;49.506;10.400;2024-01-15T10:28:37;18.07;;;10.97;;
9422;SDS011;65863;49.506;10.400;2024-01-15T10:31:21;15.73;;;10.60;;
9422;SDS011;65863;49.506;10.400;2024-01-15T10:34:12;17.80;;;10.90;;
9422;SDS011;65863;49.506;10.400;2024-01-15T10:36:56;16.83;;;11.27;;
9422;SDS011;65863;49.506;10.400;2024-01-15T10:39:40;21.67;;;11.50;;
9422;SDS011;65863;49.506;10.400;2024-01-15T10:42:24;15.97;;;10.10;;
9422;SDS011;65863;49.506;10.400;2024-01-15T10:45:09;19.13;;;10.87;;
9422;SDS011;65863;49.506;10.400;2024-01-15T10:47:53;12.57;;;9.40;;
9422;SDS011;65863;49.506;10.400;2024-01-15T10:50:42;14.50;;;9.83;;
9422;SDS011;65863;49.506;10.400;2024-01-15T10:53:26;15.50;;;9.97;;
9422;SDS011;65863;49.506;10.400;2024-01-15T10:56:11;13.43;;;9.53;;
9422;SDS011;65863;49.506;10.400;2024-01-15T10:58:57;13.30;;;9.07;;
9422;SDS011;65863;49.506;10.400;2024-01-15T11:01:42;13.40;;;9.27;;
9422;SDS011;65863;49.506;10.400;2024-01-15T11:04:27;15.07;;;9.33;;
9422;SDS011;65863;49.506;10.400;2024-01-15T11:07:12;14.97;;;9.00;;
9422;SDS011;65863;49.506;10.400;2024-01-15T11:09:57;11.87;;;8.87;;
9422;SDS011;65863;49.506;10.400;2024-01-15T11:12:42;11.00;;;8.47;;
9422;SDS011;65863;49.506;10.400;2024-01-15T11:15:27;17.27;;;9.60;;
9422;SDS011;65863;49.506;10.400;2024-01-15T11:18:12;16.13;;;10.33;;
9422;SDS011;65863;49.506;10.400;2024-01-15T11:23:58;15.87;;;9.80;;
9422;SDS011;65863;49.506;10.400;2024-01-15T11:26:44;16.03;;;10.40;;
9422;SDS011;65863;49.506;10.400;2024-01-15T11:29:33;15.50;;;10.00;;
9422;SDS011;65863;49.506;10.400;2024-01-15T11:32:23;14.37;;;10.30;;
9422;SDS011;65863;49.506;10.400;2024-01-15T11:35:17;16.87;;;10.70;;
9422;SDS011;65863;49.506;10.400;2024-01-15T11:38:02;16.80;;;10.67;;
9422;SDS011;65863;49.506;10.400;2024-01-15T11:40:47;16.40;;;10.40;;
9422;SDS011;65863;49.506;10.400;2024-01-15T11:43:32;18.00;;;10.93;;
9422;SDS011;65863;49.506;10.400;2024-01-15T11:46:17;17.30;;;11.17;;
9422;SDS011;65863;49.506;10.400;2024-01-15T11:49:03;14.63;;;10.23;;
9422;SDS011;65863;49.506;10.400;2024-01-15T11:51:49;17.47;;;10.23;;
9422;SDS011;65863;49.506;10.400;2024-01-15T11:54:34;15.93;;;10.87;;
9422;SDS011;65863;49.506;10.400;2024-01-15T11:57:25;16.93;;;10.67;;
9422;SDS011;65863;49.506;10.400;2024-01-15T12:00:19;13.47;;;9.93;;
9422;SDS011;65863;49.506;10.400;2024-01-15T12:03:04;13.77;;;9.50;;
9422;SDS011;65863;49.506;10.400;2024-01-15T12:05:48;14.47;;;9.50;;
9422;SDS011;65863;49.506;10.400;2024-01-15T12:08:32;15.30;;;10.13;;
9422;SDS011;65863;49.506;10.400;2024-01-15T12:11:16;16.00;;;12.30;;
9422;SDS011;65863;49.506;10.400;2024-01-15T12:14:05;15.40;;;10.20;;
9422;SDS011;65863;49.506;10.400;2024-01-15T12:16:49;12.90;;;9.10;;
9422;SDS011;65863;49.506;10.400;2024-01-15T12:19:33;14.87;;;9.57;;
9422;SDS011;65863;49.506;10.400;2024-01-15T12:22:17;11.67;;;9.27;;
9422;SDS011;65863;49.506;10.400;2024-01-15T12:25:02;14.53;;;9.50;;
9422;SDS011;65863;49.506;10.400;2024-01-15T12:27:45;11.77;;;8.27;;
9422;SDS011;65863;49.506;10.400;2024-01-15T12:30:30;14.70;;;9.97;;
9422;SDS011;65863;49.506;10.400;2024-01-15T12:33:17;12.07;;;9.17;;
9422;SDS011;65863;49.506;10.400;2024-01-15T12:36:02;13.23;;;8.37;;
9422;SDS011;65863;49.506;10.400;2024-01-15T12:38:47;11.17;;;7.83;;
9422;SDS011;65863;49.506;10.400;2024-01-15T12:41:31;11.53;;;7.63;;
9422;SDS011;65863;49.506;10.400;2024-01-15T12:44:16;12.23;;;8.50;;
9422;SDS011;65863;49.506;10.400;2024-01-15T12:46:59;11.23;;;7.80;;
9422;SDS011;65863;49.506;10.400;2024-01-15T12:49:46;10.60;;;6.60;;
9422;SDS011;65863;49.506;10.400;2024-01-15T12:52:30;10.50;;;7.40;;
9422;SDS011;65863;49.506;10.400;2024-01-15T12:55:15;9.13;;;6.87;;
9422;SDS011;65863;49.506;10.400;2024-01-15T12:58:00;12.07;;;6.93;;
9422;SDS011;65863;49.506;10.400;2024-01-15T13:00:44;8.90;;;6.00;;
9422;SDS011;65863;49.506;10.400;2024-01-15T13:03:28;10.27;;;6.70;;
9422;SDS011;65863;49.506;10.400;2024-01-15T13:06:12;7.97;;;6.23;;
9422;SDS011;65863;49.506;10.400;2024-01-15T13:08:56;14.40;;;7.07;;
9422;SDS011;65863;49.506;10.400;2024-01-15T13:11:40;9.60;;;6.27;;
9422;SDS011;65863;49.506;10.400;2024-01-15T13:14:24;7.80;;;5.87;;
9422;SDS011;65863;49.506;10.400;2024-01-15T13:17:08;9.53;;;7.00;;
9422;SDS011;65863;49.506;10.400;2024-01-15T13:19:52;9.53;;;6.20;;
9422;SDS011;65863;49.506;10.400;2024-01-15T13:22:36;7.87;;;5.80;;
9422;SDS011;65863;49.506;10.400;2024-01-15T13:25:22;9.27;;;6.17;;
9422;SDS011;65863;49.506;10.400;2024-01-15T13:28:06;9.73;;;6.30;;
9422;SDS011;65863;49.506;10.400;2024-01-15T13:30:51;8.10;;;6.33;;
9422;SDS011;65863;49.506;10.400;2024-01-15T13:33:35;9.07;;;6.90;;
9422;SDS011;65863;49.506;10.400;2024-01-15T13:36:57;9.97;;;6.70;;
9422;SDS011;65863;49.506;10.400;2024-01-15T13:39:41;8.30;;;5.90;;
9422;SDS011;65863;49.506;10.400;2024-01-15T13:42:25;11.37;;;7.63;;
9422;SDS011;65863;49.506;10.400;2024-01-15T13:45:11;9.43;;;6.70;;
9422;SDS011;65863;49.506;10.400;2024-01-15T13:47:57;10.00;;;7.23;;
9422;SDS011;65863;49.506;10.400;2024-01-15T13:50:42;9.10;;;6.60;;
9422;SDS011;65863;49.506;10.400;2024-01-15T13:53:26;9.20;;;6.90;;
9422;SDS011;65863;49.506;10.400;2024-01-15T13:56:10;8.80;;;6.47;;
9422;SDS011;65863;49.506;10.400;2024-01-15T13:58:54;9.77;;;7.13;;
9422;SDS011;65863;49.506;10.400;2024-01-15T14:01:38;11.17;;;6.90;;
9422;SDS011;65863;49.506;10.400;2024-01-15T14:04:22;7.87;;;6.00;;
9422;SDS011;65863;49.506;10.400;2024-01-15T14:07:09;7.63;;;5.50;;
9422;SDS011;65863;49.506;10.400;2024-01-15T14:09:53;9.07;;;6.23;;
9422;SDS011;65863;49.506;10.400;2024-01-15T14:12:41;49.23;;;20.73;;
9422;SDS011;65863;49.506;10.400;2024-01-15T14:15:25;7.13;;;5.33;;
9422;SDS011;65863;49.506;10.400;2024-01-15T14:18:10;6.97;;;5.03;;
9422;SDS011;65863;49.506;10.400;2024-01-15T14:20:55;8.60;;;5.73;;
9422;SDS011;65863;49.506;10.400;2024-01-15T14:23:39;8.27;;;5.40;;
9422;SDS011;65863;49.506;10.400;2024-01-15T14:26:23;8.27;;;7.07;;
9422;SDS011;65863;49.506;10.400;2024-01-15T14:29:07;8.70;;;6.20;;
9422;SDS011;65863;49.506;10.400;2024-01-15T14:31:52;7.20;;;6.10;;
9422;SDS011;65863;49.506;10.400;2024-01-15T14:34:37;7.83;;;6.00;;
9422;SDS011;65863;49.506;10.400;2024-01-15T14:37:21;6.80;;;5.23;;
9422;SDS011;65863;49.506;10.400;2024-01-15T14:40:05;6.17;;;5.33;;
9422;SDS011;65863;49.506;10.400;2024-01-15T14:42:54;8.87;;;6.80;;
9422;SDS011;65863;49.506;10.400;2024-01-15T14:45:38;8.07;;;6.10;;
9422;SDS011;65863;49.506;10.400;2024-01-15T14:48:22;6.67;;;5.90;;
9422;SDS011;65863;49.506;10.400;2024-01-15T14:51:06;6.20;;;4.57;;
9422;SDS011;65863;49.506;10.400;2024-01-15T14:53:50;7.07;;;5.60;;
9422;SDS011;65863;49.506;10.400;2024-01-15T14:56:36;7.30;;;5.80;;
9422;SDS011;65863;49.506;10.400;2024-01-15T14:59:21;7.43;;;5.53;;
9422;SDS011;65863;49.506;10.400;2024-01-15T15:02:05;8.80;;;6.73;;
9422;SDS011;65863;49.506;10.400;2024-01-15T15:04:50;10.20;;;6.77;;
9422;SDS011;65863;49.506;10.400;2024-01-15T15:07:34;9.43;;;6.87;;
9422;SDS011;65863;49.506;10.400;2024-01-15T15:10:19;7.70;;;6.87;;
9422;SDS011;65863;49.506;10.400;2024-01-15T15:13:03;8.37;;;6.30;;
9422;SDS011;65863;49.506;10.400;2024-01-15T15:15:48;9.90;;;6.83;;
9422;SDS011;65863;49.506;10.400;2024-01-15T15:18:32;13.50;;;8.63;;
9422;SDS011;65863;49.506;10.400;2024-01-15T15:21:16;9.63;;;7.03;;
9422;SDS011;65863;49.506;10.400;2024-01-15T15:24:00;11.97;;;9.07;;
9422;SDS011;65863;49.506;10.400;2024-01-15T15:26:44;10.13;;;8.17;;
9422;SDS011;65863;49.506;10.400;2024-01-15T15:29:28;8.17;;;6.83;;
9422;SDS011;65863;49.506;10.400;2024-01-15T15:32:12;7.83;;;5.60;;
9422;SDS011;65863;49.506;10.400;2024-01-15T15:34:57;9.90;;;6.57;;
9422;SDS011;65863;49.506;10.400;2024-01-15T15:37:41;9.83;;;6.03;;
9422;SDS011;65863;49.506;10.400;2024-01-15T15:40:25;10.10;;;7.17;;
9422;SDS011;65863;49.506;10.400;2024-01-15T15:43:09;9.10;;;6.63;;
9422;SDS011;65863;49.506;10.400;2024-01-15T15:45:53;8.60;;;5.77;;
9422;SDS011;65863;49.506;10.400;2024-01-15T15:48:37;10.57;;;8.07;;
9422;SDS011;65863;49.506;10.400;2024-01-15T15:51:21;12.13;;;6.77;;
9422;SDS011;65863;49.506;10.400;2024-01-15T15:54:06;8.90;;;6.20;;
9422;SDS011;65863;49.506;10.400;2024-01-15T15:56:50;8.27;;;6.27;;
9422;SDS011;65863;49.506;10.400;2024-01-15T15:59:36;7.97;;;6.10;;
9422;SDS011;65863;49.506;10.400;2024-01-15T16:02:21;7.90;;;6.10;;
9422;SDS011;65863;49.506;10.400;2024-01-15T16:05:05;7.37;;;5.57;;
9422;SDS011;65863;49.506;10.400;2024-01-15T16:07:53;8.27;;;6.13;;
9422;SDS011;65863;49.506;10.400;2024-01-15T16:10:37;9.80;;;7.03;;
9422;SDS011;65863;49.506;10.400;2024-01-15T16:13:22;8.43;;;5.80;;
9422;SDS011;65863;49.506;10.400;2024-01-15T16:16:06;8.47;;;6.03;;